Time;durP1;ratioP1;P1;durP2;ratioP2;P2;SDS_P1;SDS_P2;PMS_P1;PMS_P2;Temp;Humidity;BMP_temperature;BMP_pressure;BME280_temperature;BME280_humidity;BME280_pressure;Samples;Min_cycle;Max_cycle;Signal;HPM_P1;HPM_P2
2022/01/23 00:01:53;;;;;;;;;;;;;;;4.23;99.94;101524.88;5011064;28;19940;-64
2022/01/23 00:04:19;;;;;;;;;;;;;;;4.22;99.98;101533.53;5012369;28;20306;-63
2022/01/23 00:06:46;;;;;;;;;;;;;;;4.25;99.73;101519.63;5011547;28;19917;-64
2022/01/23 00:09:11;;;;;;;;;;;;;;;4.21;99.99;101518.00;5011273;28;20012;-59
2022/01/23 00:11:43;;;;;;;;;;;;;;;4.16;100.00;101525.88;5012956;28;19952;-63
2022/01/23 00:19:17;;;;;;;;;;;;;;;4.02;100.00;101523.56;5017357;28;19932;-63
2022/01/23 00:21:42;;;;;;;;;;;;;;;4.02;100.00;101509.72;5017247;28;19913;-63
2022/01/23 00:32:04;;;;;;;;;;;;;;;4.00;100.00;101521.88;5019289;28;19921;-65
2022/01/23 00:34:29;;;;;;;;;;;;;;;4.01;100.00;101528.78;5018475;28;19917;-64
2022/01/23 00:36:54;;;;;;;;;;;;;;;4.04;99.92;101529.59;5018468;28;20505;-62
2022/01/23 00:39:19;;;;;;;;;;;;;;;4.05;99.54;101535.63;5017141;28;19953;-66
2022/01/23 00:41:45;;;;;;;;;;;;;;;4.10;99.38;101541.56;5014036;28;19948;-64
2022/01/23 00:44:10;;;;;;;;;;;;;;;4.11;99.09;101544.13;5015779;28;20008;-64
2022/01/23 00:46:36;;;;;;;;;;;;;;;4.12;99.18;101543.25;5016027;28;19913;-64
2022/01/23 00:49:13;;;;;;;;;;;;;;;4.12;99.09;101543.25;5015231;28;19984;-62
2022/01/23 00:51:40;;;;;;;;;;;;;;;4.13;98.72;101547.56;5016447;28;19960;-66
2022/01/23 00:54:06;;;;;;;;;;;;;;;4.16;98.96;101551.84;5014995;28;19913;-65
2022/01/23 00:56:32;;;;;;;;;;;;;;;4.16;98.64;101548.41;5013113;28;19960;-62
2022/01/23 00:58:58;;;;;;;;;;;;;;;4.18;99.12;101555.25;5011931;28;19952;-64
2022/01/23 01:01:23;;;;;;;;;;;;;;;4.17;98.80;101550.94;5011975;28;20374;-64
2022/01/23 01:03:48;;;;;;;;;;;;;;;4.21;98.89;101557.78;5015484;28;20369;-62
2022/01/23 01:06:14;;;;;;;;;;;;;;;4.21;98.51;101544.81;5013236;28;20359;-66
2022/01/23 01:08:41;;;;;;;;;;;;;;;4.21;99.12;101539.63;5018010;28;19913;-61
2022/01/23 01:35:23;;;;;;;;;;;;;;;4.00;100.00;101566.00;5015673;28;19976;-63
2022/01/23 01:37:49;;;;;;;;;;;;;;;4.00;100.00;101559.06;5019358;28;19921;-62
2022/01/23 01:40:14;;;;;;;;;;;;;;;4.02;100.00;101572.88;5018041;28;19924;-63
2022/01/23 01:42:39;;;;;;;;;;;;;;;4.06;100.00;101576.25;5014297;28;19909;-63
2022/01/23 01:45:04;;;;;;;;;;;;;;;4.05;100.00;101582.34;5012784;28;19913;-63
2022/01/23 01:47:30;;;;;;;;;;;;;;;4.01;100.00;101567.72;5014044;28;19914;-61
2022/01/23 01:49:55;;;;;;;;;;;;;;;3.97;100.00;101551.34;5013463;28;19913;-64
2022/01/23 01:52:20;;;;;;;;;;;;;;;3.99;100.00;101552.16;5013070;28;19921;-61
2022/01/23 01:54:47;;;;;;;;;;;;;;;4.01;100.00;101567.72;5013014;28;19910;-63
2022/01/23 01:57:14;;;;;;;;;;;;;;;4.03;100.00;101559.00;5012100;28;20438;-65
2022/01/23 02:10:25;;;;;;;;;;;;;;;3.98;100.00;101542.69;5014966;28;20755;-64
2022/01/23 02:13:05;;;;;;;;;;;;;;;4.02;100.00;101546.91;5014624;28;19925;-63
2022/01/23 02:50:58;;;;;;;;;;;;;;;3.95;100.00;101553.09;5012794;28;20505;-64
2022/01/23 02:56:00;;;;;;;;;;;;;;;3.95;100.00;101547.91;5012692;28;19913;-62
2022/01/23 02:58:32;;;;;;;;;;;;;;;3.95;100.00;101553.09;5011375;28;19967;-64
2022/01/23 03:01:16;;;;;;;;;;;;;;;3.99;100.00;101559.94;5011106;28;20349;-64
2022/01/23 03:03:45;;;;;;;;;;;;;;;3.99;100.00;101553.91;5011132;28;19905;-63
2022/01/23 03:14:02;;;;;;;;;;;;;;;4.01;100.00;101550.41;5012913;28;19985;-64
2022/01/23 03:24:49;;;;;;;;;;;;;;;4.02;100.00;101546.91;5013992;28;19995;-64
2022/01/23 03:27:38;;;;;;;;;;;;;;;4.00;100.00;101548.66;5012568;28;19969;-65
2022/01/23 03:30:15;;;;;;;;;;;;;;;4.00;100.00;101543.47;5013331;28;19992;-62
2022/01/23 03:32:45;;;;;;;;;;;;;;;3.97;100.00;101553.06;5014729;28;19921;-63
2022/01/23 03:35:10;;;;;;;;;;;;;;;3.96;100.00;101553.97;5014232;28;19917;-63
2022/01/23 03:37:36;;;;;;;;;;;;;;;3.96;100.00;101557.41;5013795;28;19913;-63
2022/01/23 03:40:01;;;;;;;;;;;;;;;3.93;99.99;101564.38;5012906;28;19913;-62
2022/01/23 03:42:28;;;;;;;;;;;;;;;3.94;100.00;101556.59;5012903;28;20382;-63
2022/01/23 03:45:25;;;;;;;;;;;;;;;3.96;99.83;101560.00;5011105;28;19918;-65
2022/01/23 03:48:02;;;;;;;;;;;;;;;3.94;99.84;101566.97;5010533;28;19919;-63
2022/01/23 03:50:27;;;;;;;;;;;;;;;3.96;99.79;101572.97;5014689;28;19944;-61
2022/01/23 03:52:52;;;;;;;;;;;;;;;4.00;99.36;101566.00;5012887;28;19914;-64
2022/01/23 03:55:17;;;;;;;;;;;;;;;3.99;99.24;101569.47;5011667;28;20008;-63
2022/01/23 03:57:43;;;;;;;;;;;;;;;3.96;98.85;101577.31;5012806;28;20042;-64
2022/01/23 04:00:08;;;;;;;;;;;;;;;3.95;99.35;101570.41;5012238;28;19921;-62
2022/01/23 04:02:34;;;;;;;;;;;;;;;3.98;99.27;101568.63;5011201;28;19913;-63
2022/01/23 04:04:59;;;;;;;;;;;;;;;4.02;98.69;101579.81;5010852;28;19913;-62
2022/01/23 04:07:27;;;;;;;;;;;;;;;3.99;98.88;101574.66;5015286;28;19917;-63
2022/01/23 04:09:53;;;;;;;;;;;;;;;3.98;99.05;101579.00;5013040;28;19914;-64
2022/01/23 04:15:04;;;;;;;;;;;;;;;3.99;98.67;101575.53;5015799;28;19913;-63
2022/01/23 04:18:16;;;;;;;;;;;;;;;3.97;98.73;101572.13;5014738;28;19917;-63
2022/01/23 04:34:11;;;;;;;;;;;;;;;3.83;99.44;101576.69;5012007;28;19967;-63
2022/01/23 05:01:00;;;;;;;;;;;;;;;3.80;99.57;101607.88;5005802;23;19928;-69
2022/01/23 05:06:29;;;;;;;;;;;;;;;3.84;98.98;101612.97;4952472;28;20009;-66
2022/01/23 05:08:55;;;;;;;;;;;;;;;3.79;99.38;101611.38;4987365;28;19917;-67
2022/01/23 05:11:20;;;;;;;;;;;;;;;3.74;99.62;101614.03;4998786;28;20298;-66
2022/01/23 05:13:46;;;;;;;;;;;;;;;3.79;99.04;101616.56;4996322;28;19920;-66
2022/01/23 05:16:12;;;;;;;;;;;;;;;3.76;99.43;101616.59;4994462;28;19932;-67
2022/01/23 05:18:37;;;;;;;;;;;;;;;3.69;98.94;101615.84;4991810;28;19945;-67
2022/01/23 05:21:19;;;;;;;;;;;;;;;3.67;99.25;101616.75;4997970;28;19945;-67
2022/01/23 05:23:45;;;;;;;;;;;;;;;3.70;99.19;101611.50;4990409;28;19917;-68
2022/01/23 05:26:10;;;;;;;;;;;;;;;3.71;98.58;101629.66;4996043;28;19914;-66
2022/01/23 05:28:35;;;;;;;;;;;;;;;3.72;98.42;101633.09;4998839;28;20454;-69
2022/01/23 05:31:00;;;;;;;;;;;;;;;3.70;98.06;101632.25;4998004;28;19909;-67
2022/01/23 05:33:26;;;;;;;;;;;;;;;3.69;98.26;101627.97;5000057;28;20461;-67
2022/01/23 05:35:51;;;;;;;;;;;;;;;3.65;98.34;101627.16;5000094;28;19913;-66
2022/01/23 05:38:16;;;;;;;;;;;;;;;3.60;98.49;101616.00;4993572;28;19922;-66
2022/01/23 05:40:43;;;;;;;;;;;;;;;3.61;98.77;101626.34;4991849;28;19921;-66
2022/01/23 05:43:08;;;;;;;;;;;;;;;3.63;98.54;101629.78;4991676;28;19918;-67
2022/01/23 05:45:37;;;;;;;;;;;;;;;3.60;98.14;101627.25;4992351;28;19906;-67
2022/01/23 05:48:03;;;;;;;;;;;;;;;3.61;98.22;101633.28;4992714;28;19913;-66
2022/01/23 05:50:28;;;;;;;;;;;;;;;3.64;98.43;101633.22;4990712;28;19920;-68
2022/01/23 05:52:53;;;;;;;;;;;;;;;3.67;98.01;101638.38;4991350;28;19914;-67
2022/01/23 05:55:18;;;;;;;;;;;;;;;3.70;97.76;101637.44;4991553;28;19924;-67
2022/01/23 05:57:44;;;;;;;;;;;;;;;3.69;97.97;101641.78;4992123;28;19910;-66
2022/01/23 06:00:09;;;;;;;;;;;;;;;3.69;98.20;101649.56;4991154;28;19917;-68
2022/01/23 06:02:34;;;;;;;;;;;;;;;3.69;98.07;101648.72;4992172;28;19917;-70
2022/01/23 06:05:00;;;;;;;;;;;;;;;3.68;98.17;101653.06;4995462;28;19917;-66
2022/01/23 06:07:25;;;;;;;;;;;;;;;3.69;98.45;101653.91;4990980;28;19920;-67
2022/01/23 06:09:50;;;;;;;;;;;;;;;3.66;98.09;101659.13;4990989;28;19916;-66
2022/01/23 06:12:16;;;;;;;;;;;;;;;3.69;98.81;101662.53;4990987;28;20038;-64
2022/01/23 06:14:41;;;;;;;;;;;;;;;3.69;98.63;101678.09;4994306;28;19913;-67
2022/01/23 06:17:06;;;;;;;;;;;;;;;3.67;98.59;101671.22;4990059;28;20008;-67
2022/01/23 06:19:34;;;;;;;;;;;;;;;3.66;98.81;101672.09;4991059;28;19921;-67
2022/01/23 06:21:59;;;;;;;;;;;;;;;3.64;99.13;101680.78;4991053;28;19917;-67
2022/01/23 06:24:26;;;;;;;;;;;;;;;3.62;99.45;101672.16;4990857;28;19968;-67
2022/01/23 06:26:53;;;;;;;;;;;;;;;3.59;99.31;101681.72;4991186;28;19921;-66
2022/01/23 06:29:19;;;;;;;;;;;;;;;3.59;99.45;101674.78;4990808;28;19924;-67
2022/01/23 06:31:47;;;;;;;;;;;;;;;3.62;99.50;101679.94;4991106;28;19914;-67
2022/01/23 06:34:13;;;;;;;;;;;;;;;3.61;100.00;101677.38;4987708;28;20430;-66
2022/01/23 06:36:39;;;;;;;;;;;;;;;3.50;100.00;101674.94;4991241;28;19939;-67
2022/01/23 06:39:06;;;;;;;;;;;;;;;3.51;100.00;101678.38;4990897;28;20307;-68
2022/01/23 06:41:32;;;;;;;;;;;;;;;3.49;100.00;101677.56;4990952;28;19914;-65
2022/01/23 06:43:57;;;;;;;;;;;;;;;3.48;100.00;101678.44;4988759;28;19948;-69
2022/01/23 06:46:22;;;;;;;;;;;;;;;3.49;100.00;101672.38;4990923;28;19913;-68
2022/01/23 06:48:48;;;;;;;;;;;;;;;3.51;100.00;101687.03;4991102;28;20000;-67
2022/01/23 06:51:13;;;;;;;;;;;;;;;3.52;100.00;101680.97;4994843;28;20379;-67
2022/01/23 06:53:38;;;;;;;;;;;;;;;3.51;100.00;101679.25;4998646;28;19918;-69
2022/01/23 06:56:03;;;;;;;;;;;;;;;3.54;100.00;101692.16;4993122;28;19921;-67
2022/01/23 06:58:29;;;;;;;;;;;;;;;3.52;100.00;101688.75;4994615;28;20016;-67
2022/01/23 07:00:54;;;;;;;;;;;;;;;3.57;100.00;101686.09;5004503;28;20000;-66
2022/01/23 07:03:19;;;;;;;;;;;;;;;3.54;100.00;101691.31;4988867;28;19964;-66
2022/01/23 07:05:45;;;;;;;;;;;;;;;3.54;100.00;101697.34;4990986;28;19924;-65
2022/01/23 07:08:10;;;;;;;;;;;;;;;3.54;100.00;101688.72;4990256;28;19913;-67
2022/01/23 07:10:35;;;;;;;;;;;;;;;3.51;100.00;101687.03;4990552;28;19989;-66
2022/01/23 07:13:00;;;;;;;;;;;;;;;3.51;100.00;101689.63;4992492;28;19914;-66
2022/01/23 07:15:26;;;;;;;;;;;;;;;3.54;100.00;101686.97;4986965;28;19917;-69
2022/01/23 07:17:51;;;;;;;;;;;;;;;3.63;100.00;101689.44;4987089;28;19925;-67
2022/01/23 07:20:16;;;;;;;;;;;;;;;3.61;100.00;101690.34;4981732;28;19957;-68
2022/01/23 07:22:41;;;;;;;;;;;;;;;3.70;100.00;101697.13;4987765;28;19998;-68
2022/01/23 07:25:07;;;;;;;;;;;;;;;3.68;100.00;101702.34;4990744;28;19967;-67
2022/01/23 07:27:37;;;;;;;;;;;;;;;3.70;100.00;101697.97;4990431;28;19921;-66
2022/01/23 07:30:05;;;;;;;;;;;;;;;3.78;100.00;101708.22;4990558;28;19925;-66
2022/01/23 07:32:31;;;;;;;;;;;;;;;3.78;100.00;101706.50;4988911;28;20015;-67
2022/01/23 07:34:56;;;;;;;;;;;;;;;3.79;100.00;101721.19;4990569;28;19969;-69
2022/01/23 07:37:21;;;;;;;;;;;;;;;3.83;100.00;101724.59;4990206;28;19914;-67
2022/01/23 07:39:46;;;;;;;;;;;;;;;3.81;99.79;101723.75;4988977;28;19921;-69
2022/01/23 07:42:11;;;;;;;;;;;;;;;3.79;99.46;101721.19;4982258;28;19922;-66
2022/01/23 07:44:37;;;;;;;;;;;;;;;3.81;100.00;101721.16;4990513;28;19989;-67
2022/01/23 07:47:02;;;;;;;;;;;;;;;3.79;100.00;101722.94;4990734;28;19945;-66
2022/01/23 07:49:27;;;;;;;;;;;;;;;3.79;100.00;101723.78;4990562;28;19920;-66
2022/01/23 07:51:52;;;;;;;;;;;;;;;3.86;99.81;101727.16;4994483;28;19914;-65
2022/01/23 07:54:17;;;;;;;;;;;;;;;3.92;99.67;101733.97;4996678;28;19913;-67
2022/01/23 07:56:43;;;;;;;;;;;;;;;3.98;98.98;101729.53;4987273;28;20270;-67
2022/01/23 07:59:09;;;;;;;;;;;;;;;4.02;98.88;101726.00;4991670;28;20559;-65
2022/01/23 08:01:38;;;;;;;;;;;;;;;4.01;98.16;101724.28;4988322;28;19913;-70
2022/01/23 08:04:04;;;;;;;;;;;;;;;4.05;98.29;101732.88;4989550;28;19917;-65
2022/01/23 08:06:32;;;;;;;;;;;;;;;4.13;97.71;101734.47;4990229;28;19917;-64
2022/01/23 08:08:57;;;;;;;;;;;;;;;4.15;97.51;101738.75;4989836;28;20011;-66
2022/01/23 08:11:23;;;;;;;;;;;;;;;4.15;97.28;101749.16;4989360;28;20603;-66
2022/01/23 08:13:48;;;;;;;;;;;;;;;4.14;96.96;101748.28;4989123;28;19932;-67
2022/01/23 08:16:13;;;;;;;;;;;;;;;4.15;97.22;101746.56;4984270;28;20024;-66
2022/01/23 08:18:39;;;;;;;;;;;;;;;4.10;96.82;101755.28;4987010;28;19918;-64
2022/01/23 08:21:04;;;;;;;;;;;;;;;4.16;97.25;101756.06;4985892;28;19948;-68
2022/01/23 08:23:29;;;;;;;;;;;;;;;4.18;97.15;101741.31;4983013;28;19930;-65
2022/01/23 08:25:54;;;;;;;;;;;;;;;4.17;96.97;101750.84;4991884;28;20451;-68
2022/01/23 08:28:20;;;;;;;;;;;;;;;4.07;97.32;101755.31;4992043;28;20411;-66
2022/01/23 08:30:45;;;;;;;;;;;;;;;4.08;97.77;101753.59;4994122;28;19920;-65
2022/01/23 08:33:10;;;;;;;;;;;;;;;4.11;98.40;101750.94;4983589;28;21543;-67
2022/01/23 08:35:35;;;;;;;;;;;;;;;4.11;98.87;101741.41;4984596;28;19929;-66
2022/01/23 08:38:01;;;;;;;;;;;;;;;4.14;98.46;101745.69;4988127;28;19917;-67
2022/01/23 08:43:06;;;;;;;;;;;;;;;4.19;98.03;101745.59;4993330;28;20315;-67
2022/01/23 08:45:31;;;;;;;;;;;;;;;4.22;98.14;101742.97;5001333;28;19914;-67
2022/01/23 08:47:57;;;;;;;;;;;;;;;4.23;97.70;101766.31;4998295;28;19913;-67
2022/01/23 08:50:22;;;;;;;;;;;;;;;4.28;97.40;101754.13;4986749;28;19992;-67
2022/01/23 08:52:47;;;;;;;;;;;;;;;4.28;98.19;101755.84;5000842;28;19946;-68
2022/01/23 08:55:12;;;;;;;;;;;;;;;4.25;98.02;101753.31;4993024;28;19920;-67
2022/01/23 08:57:38;;;;;;;;;;;;;;;4.29;97.59;101752.38;5001076;28;19917;-67
2022/01/23 09:00:04;;;;;;;;;;;;;;;4.30;97.97;101751.47;4992940;28;19918;-67
2022/01/23 09:02:30;;;;;;;;;;;;;;;4.32;98.24;101749.72;4993763;28;19926;-71
2022/01/23 09:04:56;;;;;;;;;;;;;;;4.29;98.22;101754.97;4995810;28;19940;-71
2022/01/23 09:07:22;;;;;;;;;;;;;;;4.27;98.48;101755.00;4993298;28;19914;-70
2022/01/23 09:09:47;;;;;;;;;;;;;;;4.26;98.90;101752.41;4993848;28;19910;-70
2022/01/23 09:14:40;;;;;;;;;;;;;;;4.22;99.45;101754.22;4993148;28;19922;-70
2022/01/23 09:17:06;;;;;;;;;;;;;;;4.21;99.18;101751.66;4990445;28;19920;-70
2022/01/23 09:19:32;;;;;;;;;;;;;;;4.24;99.06;101755.06;4989477;28;19921;-69
2022/01/23 09:21:58;;;;;;;;;;;;;;;4.32;99.03;101757.50;4991389;28;19922;-70
2022/01/23 09:24:24;;;;;;;;;;;;;;;4.32;98.97;101766.16;4993171;28;19916;-68
2022/01/23 09:26:54;;;;;;;;;;;;;;;4.32;98.83;101760.97;4992290;28;20338;-68
2022/01/23 09:29:30;;;;;;;;;;;;;;;4.26;98.83;101762.81;4992558;28;20008;-68
2022/01/23 09:31:55;;;;;;;;;;;;;;;4.23;99.52;101761.13;4990109;28;19924;-69
2022/01/23 09:34:22;;;;;;;;;;;;;;;4.28;99.75;101761.06;4991852;28;19914;-69
2022/01/23 09:36:48;;;;;;;;;;;;;;;4.30;99.13;101765.34;4991882;28;19997;-69
2022/01/23 09:39:15;;;;;;;;;;;;;;;4.25;99.36;101774.09;4995023;28;20000;-69
2022/01/23 09:41:45;;;;;;;;;;;;;;;4.36;99.31;101785.13;4999089;28;19917;-69
2022/01/23 09:44:12;;;;;;;;;;;;;;;4.41;98.91;101772.91;4992464;28;20342;-69
2022/01/23 09:46:37;;;;;;;;;;;;;;;4.49;98.65;101775.41;4991689;28;19918;-69
2022/01/23 09:49:03;;;;;;;;;;;;;;;4.65;98.15;101786.38;4992825;28;19909;-68
2022/01/23 09:51:28;;;;;;;;;;;;;;;4.71;98.23;101787.13;4997034;28;19913;-68
2022/01/23 09:53:54;;;;;;;;;;;;;;;4.78;97.66;101788.72;4992744;28;20184;-69
2022/01/23 09:56:24;;;;;;;;;;;;;;;4.69;97.30;101788.03;4989208;28;19922;-69
2022/01/23 09:58:50;;;;;;;;;;;;;;;4.64;97.74;101789.88;4987432;28;19929;-69
2022/01/23 10:01:15;;;;;;;;;;;;;;;4.61;98.42;101790.78;4992258;28;19926;-68
2022/01/23 10:03:40;;;;;;;;;;;;;;;4.59;98.89;101793.38;4992648;28;19933;-69
2022/01/23 10:06:08;;;;;;;;;;;;;;;4.63;99.13;101793.31;4991199;28;20330;-69
2022/01/23 10:08:35;;;;;;;;;;;;;;;4.68;99.08;101792.38;4991358;28;19914;-67
2022/01/23 10:11:00;;;;;;;;;;;;;;;4.78;99.02;101793.94;4992485;28;19941;-69
2022/01/23 10:13:26;;;;;;;;;;;;;;;4.79;97.61;101798.22;4990253;28;19956;-71
2022/01/23 10:15:52;;;;;;;;;;;;;;;4.86;97.15;101801.59;4992758;28;19909;-70
2022/01/23 10:18:18;;;;;;;;;;;;;;;4.83;96.80;101796.44;4991377;28;20295;-71
2022/01/23 10:20:45;;;;;;;;;;;;;;;4.92;97.04;101803.19;4996535;28;19961;-70
2022/01/23 10:23:11;;;;;;;;;;;;;;;5.00;96.64;101799.53;5000220;28;19929;-70
2022/01/23 10:25:40;;;;;;;;;;;;;;;5.07;96.45;101789.88;5014150;28;19914;-70
2022/01/23 10:28:09;;;;;;;;;;;;;;;5.13;95.70;101799.31;5011881;28;19956;-69
2022/01/23 10:30:40;;;;;;;;;;;;;;;5.06;95.97;101796.84;4998082;28;19997;-70
2022/01/23 10:33:11;;;;;;;;;;;;;;;4.91;97.05;101801.47;4990965;28;20343;-71
2022/01/23 10:35:55;;;;;;;;;;;;;;;4.90;97.48;101800.63;4989221;28;19917;-72
2022/01/23 10:38:22;;;;;;;;;;;;;;;4.89;98.13;101795.44;4991023;28;19917;-71
2022/01/23 10:40:52;;;;;;;;;;;;;;;4.90;98.30;101795.44;4983117;28;19926;-69
2022/01/23 10:48:35;;;;;;;;;;;;;;;4.84;98.72;101799.00;4990886;28;19920;-72
2022/01/23 10:51:19;;;;;;;;;;;;;;;4.90;98.96;101799.78;4987150;28;19928;-71
2022/01/23 10:54:04;;;;;;;;;;;;;;;4.97;98.47;101799.63;4986697;28;19920;-71
2022/01/23 10:56:31;;;;;;;;;;;;;;;4.90;99.11;101805.84;5003992;28;19961;-70
2022/01/23 10:58:57;;;;;;;;;;;;;;;4.86;99.22;101796.38;4992094;28;19924;-71
2022/01/23 11:01:27;;;;;;;;;;;;;;;4.89;99.63;101800.66;5022515;22;19922;-90
2022/01/23 11:04:13;;;;;;;;;;;;;;;4.93;98.84;101797.97;4996858;28;20372;-90
2022/01/23 11:06:57;;;;;;;;;;;;;;;5.15;98.97;101794.94;5014713;28;19945;-89
2022/01/23 11:09:26;;;;;;;;;;;;;;;5.24;98.69;101789.56;4997006;28;19920;-89
2022/01/23 11:12:01;;;;;;;;;;;;;;;5.28;97.55;101793.81;5006673;28;19913;-90
2022/01/23 11:17:22;;;;;;;;;;;;;;;5.15;97.30;101793.19;5015931;28;20324;-89
2022/01/23 11:19:51;;;;;;;;;;;;;;;5.11;98.09;101783.75;5012882;28;19937;-89
2022/01/23 11:22:18;;;;;;;;;;;;;;;5.08;96.99;101789.03;5015366;28;19918;-92
2022/01/23 11:24:53;;;;;;;;;;;;;;;5.20;98.25;101780.13;5013638;28;19955;-90
2022/01/23 11:27:23;;;;;;;;;;;;;;;5.25;97.69;101776.50;5012793;28;19920;-90
2022/01/23 11:29:55;;;;;;;;;;;;;;;5.34;98.00;101772.88;5005195;28;19917;-89
2022/01/23 11:32:25;;;;;;;;;;;;;;;5.34;97.27;101770.28;5020293;28;19991;-91
2022/01/23 11:34:57;;;;;;;;;;;;;;;5.43;97.75;101775.28;5011219;28;19956;-91
2022/01/23 11:37:23;;;;;;;;;;;;;;;5.40;98.05;101767.53;5013831;28;19913;-91
2022/01/23 11:39:58;;;;;;;;;;;;;;;5.33;98.23;101758.16;5003261;28;19948;-89
2022/01/23 11:51:17;;;;;;;;;;;;;;;5.25;98.33;101760.91;5012576;28;19963;-90
2022/01/23 11:56:44;;;;;;;;;;;;;;;5.36;98.13;101755.47;5005407;28;19919;-89
2022/01/23 11:59:13;;;;;;;;;;;;;;;5.31;97.71;101759.94;5012897;28;19913;-90
2022/01/23 12:01:52;;;;;;;;;;;;;;;;;;;;;
2022/01/23 12:04:22;;;;;;;;;;;;;;;5.22;98.32;101747.97;5015613;28;20285;-89
2022/01/23 12:07:06;;;;;;;;;;;;;;;5.23;98.71;101754.06;5014004;28;19909;-89
2022/01/23 12:09:36;;;;;;;;;;;;;;;5.24;99.10;101761.81;5016045;28;19910;-90
2022/01/23 12:12:36;;;;;;;;;;;;;;;5.24;98.68;101760.97;5016823;28;19949;-89
2022/01/23 12:18:28;;;;;;;;;;;;;;;5.29;99.13;101759.94;5016905;28;19971;-91
2022/01/23 12:20:57;;;;;;;;;;;;;;;5.35;99.14;101769.38;5008066;28;20393;-89
2022/01/23 12:23:22;;;;;;;;;;;;;;;5.36;98.98;101758.09;5014363;28;19920;-89
2022/01/23 12:25:55;;;;;;;;;;;;;;;5.37;98.72;101758.94;5005607;28;19921;-89
2022/01/23 12:28:21;;;;;;;;;;;;;;;5.36;98.24;101747.69;5012923;28;19959;-88
2022/01/23 12:30:50;;;;;;;;;;;;;;;5.39;98.08;101754.56;5011768;28;19909;-89
2022/01/23 12:33:29;;;;;;;;;;;;;;;5.37;98.47;101751.97;5012428;28;19993;-88
2022/01/23 12:36:19;;;;;;;;;;;;;;;5.35;98.91;101748.59;5011365;28;19917;-90
2022/01/23 12:38:53;;;;;;;;;;;;;;;5.37;98.22;101745.94;5010435;28;20366;-91
2022/01/23 12:41:42;;;;;;;;;;;;;;;5.33;98.18;101746.00;5012231;28;19928;-88
2022/01/23 12:44:12;;;;;;;;;;;;;;;5.37;98.06;101743.34;5008985;28;19948;-89
2022/01/23 12:46:41;;;;;;;;;;;;;;;5.36;98.11;101739.88;5011202;28;19914;-90
2022/01/23 12:49:26;;;;;;;;;;;;;;;5.43;97.57;101733.66;5015654;28;19921;-89
2022/01/23 12:51:52;;;;;;;;;;;;;;;5.57;96.47;101738.56;5012045;28;20325;-88
2022/01/23 12:54:28;;;;;;;;;;;;;;;5.60;96.87;101735.88;5015016;28;19913;-89
2022/01/23 12:56:54;;;;;;;;;;;;;;;5.52;97.19;101751.66;5005752;28;19967;-92
2022/01/23 13:02:29;;;;;;;;;;;;;;;5.40;97.85;101743.28;5016796;28;19971;-90
2022/01/23 13:04:55;;;;;;;;;;;;;;;5.44;97.98;101750.13;5017346;28;19913;-89
2022/01/23 13:07:41;;;;;;;;;;;;;;;5.43;97.75;101745.81;5012325;28;19913;-89
2022/01/23 13:10:26;;;;;;;;;;;;;;;5.37;97.39;101740.72;5017360;28;19909;-89
2022/01/23 13:15:56;;;;;;;;;;;;;;;5.40;97.57;101751.06;5017303;28;19917;-91
2022/01/23 13:32:12;;;;;;;;;;;;;;;5.35;97.00;101748.59;5021453;28;20031;-88
2022/01/23 13:34:48;;;;;;;;;;;;;;;5.34;96.92;101737.31;5027079;28;19951;-89
2022/01/23 13:37:15;;;;;;;;;;;;;;;5.34;95.79;101745.13;5022048;28;20011;-90
2022/01/23 13:39:52;;;;;;;;;;;;;;;5.33;95.89;101742.53;5013800;28;19976;-89
2022/01/23 13:59:25;;;;;;;;;;;;;;;5.39;97.59;101736.38;4950589;29;20008;-87
2022/01/23 14:01:55;;;;;;;;;;;;;;;5.43;97.89;101741.47;4936907;29;19927;-88
2022/01/23 14:04:24;;;;;;;;;;;;;;;5.45;97.66;101746.63;4941942;29;19918;-89
2022/01/23 14:06:53;;;;;;;;;;;;;;;5.43;98.63;101735.41;4944344;29;19914;-89
2022/01/23 14:09:26;;;;;;;;;;;;;;;5.47;98.48;101737.03;4924609;29;19973;-90
2022/01/23 14:11:52;;;;;;;;;;;;;;;5.40;98.39;101741.53;4925664;28;19925;-86
2022/01/23 14:14:26;;;;;;;;;;;;;;;5.39;98.63;101746.78;4926426;29;19946;-89
2022/01/23 14:16:53;;;;;;;;;;;;;;;5.41;98.54;101747.56;4939656;29;19915;-89
2022/01/23 14:19:22;;;;;;;;;;;;;;;5.37;99.15;101740.72;4948458;29;19933;-87
2022/01/23 14:22:06;;;;;;;;;;;;;;;5.37;99.05;101746.78;4947458;29;19941;-91
2022/01/23 14:24:45;;;;;;;;;;;;;;;5.36;99.21;101742.47;4955482;29;19915;-90
2022/01/23 14:27:26;;;;;;;;;;;;;;;5.44;98.86;101748.38;4950636;29;19915;-88
2022/01/23 14:30:15;;;;;;;;;;;;;;;5.46;98.95;101746.59;4944604;29;19917;-92
2022/01/23 14:32:50;;;;;;;;;;;;;;;5.49;98.16;101746.53;4942977;29;19902;-90
2022/01/23 14:35:28;;;;;;;;;;;;;;;;;;;;;
2022/01/23 14:38:16;;;;;;;;;;;;;;;5.44;98.84;101743.16;5015767;28;19941;-89
2022/01/23 14:41:01;;;;;;;;;;;;;;;5.42;99.68;101746.72;5011379;28;19928;-92
2022/01/23 14:43:42;;;;;;;;;;;;;;;5.37;99.83;101748.53;5022967;28;19921;-91
2022/01/23 14:46:17;;;;;;;;;;;;;;;5.36;99.79;101746.84;5021608;28;19972;-87
2022/01/23 14:48:48;;;;;;;;;;;;;;;5.40;100.00;101754.53;5020604;28;19921;-92
2022/01/23 14:51:41;;;;;;;;;;;;;;;5.41;100.00;101748.44;5016015;28;20365;-92
2022/01/23 14:54:24;;;;;;;;;;;;;;;5.44;100.00;101750.13;4951707;28;19977;-90
2022/01/23 14:57:12;;;;;;;;;;;;;;;5.42;100.00;101757.13;4952175;28;19921;-90
2022/01/23 14:59:39;;;;;;;;;;;;;;;5.38;100.00;101751.13;4983725;28;19910;-91
2022/01/23 15:02:16;;;;;;;;;;;;;;;5.37;100.00;101751.97;4957199;28;19933;-90
2022/01/23 15:08:21;;;;;;;;;;;;;;;5.42;100.00;101751.91;4941440;28;19915;-91
2022/01/23 15:10:48;;;;;;;;;;;;;;;5.40;100.00;101754.53;4944945;28;19976;-89
2022/01/23 15:13:19;;;;;;;;;;;;;;;5.34;100.00;101752.09;4950809;28;19973;-90
2022/01/23 15:15:49;;;;;;;;;;;;;;;5.34;100.00;101746.88;4977690;28;19965;-89
2022/01/23 15:18:16;;;;;;;;;;;;;;;5.34;100.00;101749.47;4940769;28;19914;-91
2022/01/23 15:20:45;;;;;;;;;;;;;;;5.31;100.00;101749.53;4975648;28;19929;-90
2022/01/23 15:23:11;;;;;;;;;;;;;;;5.24;100.00;101748.81;4960997;28;19921;-90
2022/01/23 15:25:39;;;;;;;;;;;;;;;5.28;100.00;101749.59;4977571;28;19914;-89
2022/01/23 15:28:14;;;;;;;;;;;;;;;5.26;100.00;101756.56;4962050;28;19910;-89
2022/01/23 15:30:52;;;;;;;;;;;;;;;;;;;;;
2022/01/23 15:33:23;;;;;;;;;;;;;;;5.21;100.00;101746.25;5005247;28;20754;-90
2022/01/23 15:35:52;;;;;;;;;;;;;;;5.22;100.00;101760.13;5017225;28;19980;-90
2022/01/23 15:38:26;;;;;;;;;;;;;;;5.21;100.00;101755.81;5018761;28;19940;-91
2022/01/23 15:41:04;;;;;;;;;;;;;;;5.20;100.00;101767.13;5014390;28;19917;-90
2022/01/23 15:50:26;;;;;;;;;;;;;;;5.24;100.00;101771.34;4767937;29;19917;-90
2022/01/23 15:56:48;;;;;;;;;;;;;;;;;;;;;
2022/01/23 15:59:23;;;;;;;;;;;;;;;5.28;100.00;101786.84;4789616;29;20012;-90
2022/01/23 16:01:49;;;;;;;;;;;;;;;5.27;100.00;101779.97;4807437;29;19925;-89
2022/01/23 16:04:21;;;;;;;;;;;;;;;5.29;100.00;101790.31;4796187;29;20427;-90
2022/01/23 16:06:49;;;;;;;;;;;;;;;5.29;100.00;101790.31;4838230;29;19999;-88
2022/01/23 16:09:18;;;;;;;;;;;;;;;5.30;100.00;101786.81;4843327;29;19940;-89
2022/01/23 16:11:43;;;;;;;;;;;;;;;5.33;100.00;101800.63;4878484;29;19916;-88
2022/01/23 16:14:09;;;;;;;;;;;;;;;5.36;100.00;101791.91;4878187;29;20003;-88
2022/01/23 16:16:36;;;;;;;;;;;;;;;5.30;100.00;101794.63;4873361;29;19962;-89
2022/01/23 16:19:05;;;;;;;;;;;;;;;5.28;100.00;101789.47;4881412;29;19912;-89
2022/01/23 16:21:56;;;;;;;;;;;;;;;5.28;100.00;101789.47;4903455;28;20429;-90
2022/01/23 16:24:25;;;;;;;;;;;;;;;5.30;100.00;101790.31;4976518;28;19938;-90
2022/01/23 16:26:54;;;;;;;;;;;;;;;5.28;100.00;101789.47;4965913;28;19914;-88
2022/01/23 16:29:21;;;;;;;;;;;;;;;5.31;100.00;101791.16;4957938;28;19925;-89
2022/01/23 16:31:49;;;;;;;;;;;;;;;5.32;100.00;101783.31;4967515;28;20040;-89
2022/01/23 16:34:18;;;;;;;;;;;;;;;5.29;100.00;101774.72;5006727;28;19914;-90
2022/01/23 16:36:43;;;;;;;;;;;;;;;5.25;100.00;101783.47;5016934;28;19913;-88
2022/01/23 16:39:27;;;;;;;;;;;;;;;5.26;100.00;101775.63;5017544;28;19920;-94
2022/01/23 16:42:17;;;;;;;;;;;;;;;5.29;100.00;101778.16;5013083;28;19917;-94
2022/01/23 16:48:12;;;;;;;;;;;;;;;5.25;100.00;101780.88;4943638;28;20001;-91